createdAt,value
2017-08-08T00:01:07.792Z,5.30
2017-08-08T00:03:42.372Z,4.53
2017-08-08T00:06:16.878Z,4.27
2017-08-08T00:08:54.326Z,4.30
2017-08-08T00:11:31.904Z,4.63
2017-08-08T00:14:07.643Z,5.10
2017-08-08T00:16:42.194Z,4.90
2017-08-08T00:19:16.880Z,5.10
2017-08-08T00:21:51.425Z,5.17
2017-08-08T00:24:26.155Z,4.70
2017-08-08T00:27:00.679Z,5.00
2017-08-08T00:29:35.211Z,4.80
2017-08-08T00:32:10.442Z,4.77
2017-08-08T00:34:51.202Z,4.67
2017-08-08T00:37:26.728Z,5.00
2017-08-08T00:40:01.304Z,4.80
2017-08-08T00:42:37.449Z,4.77
2017-08-08T00:45:12.397Z,4.23
2017-08-08T00:47:46.972Z,4.30
2017-08-08T00:50:21.626Z,5.03
2017-08-08T00:52:56.320Z,4.70
2017-08-08T00:55:31.384Z,4.57
2017-08-08T00:58:06.590Z,5.00
2017-08-08T01:00:41.244Z,5.03
2017-08-08T01:03:15.813Z,5.40
2017-08-08T01:05:50.409Z,4.77
2017-08-08T01:08:25.912Z,4.73
2017-08-08T01:11:01.333Z,5.13
2017-08-08T01:13:35.895Z,5.10
2017-08-08T01:16:10.475Z,5.43
2017-08-08T01:18:48.157Z,4.93
2017-08-08T01:21:23.625Z,5.27
2017-08-08T01:23:58.186Z,4.80
2017-08-08T01:26:32.781Z,4.80
2017-08-08T01:29:07.279Z,5.17
2017-08-08T01:31:41.975Z,4.90
2017-08-08T01:34:17.499Z,4.97
2017-08-08T01:36:52.518Z,4.93
2017-08-08T01:39:27.198Z,5.20
2017-08-08T01:42:01.709Z,5.60
2017-08-08T01:44:37.070Z,5.00
2017-08-08T01:47:11.724Z,4.87
2017-08-08T01:49:45.829Z,4.77
2017-08-08T01:52:20.303Z,5.23
2017-08-08T01:54:54.738Z,5.60
2017-08-08T01:57:29.526Z,5.67
2017-08-08T02:00:04.044Z,5.17
2017-08-08T02:02:38.269Z,5.80
2017-08-08T02:05:12.978Z,5.57
2017-08-08T02:07:47.542Z,5.20
2017-08-08T02:10:23.650Z,5.27
2017-08-08T02:12:58.600Z,5.80
2017-08-08T02:15:33.857Z,5.63
2017-08-08T02:18:08.099Z,5.97
2017-08-08T02:20:42.488Z,5.43
2017-08-08T02:23:17.196Z,5.13
2017-08-08T02:25:51.336Z,4.77
2017-08-08T02:28:26.146Z,5.63
2017-08-08T02:31:01.491Z,5.07
2017-08-08T02:33:36.066Z,4.97
2017-08-08T02:36:10.481Z,5.17
2017-08-08T02:38:45.256Z,5.50
2017-08-08T02:41:19.756Z,5.23
2017-08-08T02:43:54.363Z,5.47
2017-08-08T02:46:29.493Z,5.50
2017-08-08T02:49:04.439Z,5.23
2017-08-08T02:51:40.271Z,5.27
2017-08-08T02:54:15.322Z,5.13
2017-08-08T02:56:50.809Z,5.80
2017-08-08T02:59:26.649Z,4.67
2017-08-08T03:02:02.195Z,5.60
2017-08-08T03:04:36.789Z,6.07
2017-08-08T03:07:12.194Z,5.37
2017-08-08T03:09:46.909Z,5.87
2017-08-08T03:12:21.403Z,5.60
2017-08-08T03:14:56.122Z,6.47
2017-08-08T03:17:31.437Z,5.53
2017-08-08T03:20:05.954Z,5.80
2017-08-08T03:22:40.172Z,5.93
2017-08-08T03:25:15.994Z,5.90
2017-08-08T03:27:51.268Z,6.57
2017-08-08T03:30:27.684Z,5.57
2017-08-08T03:33:02.164Z,6.20
2017-08-08T03:35:36.669Z,5.93
2017-08-08T03:38:12.108Z,6.00
2017-08-08T03:40:46.869Z,5.30
2017-08-08T03:43:26.218Z,6.23
2017-08-08T03:46:01.255Z,6.27
2017-08-08T03:48:37.299Z,5.77
2017-08-08T03:51:12.293Z,6.67
2017-08-08T03:53:47.759Z,5.73
2017-08-08T03:56:23.230Z,6.13
2017-08-08T03:58:58.863Z,6.67
2017-08-08T04:01:34.279Z,5.97
2017-08-08T04:04:09.679Z,5.90
2017-08-08T04:06:45.034Z,6.30
2017-08-08T04:09:20.457Z,6.57
2017-08-08T04:11:55.841Z,5.70
2017-08-08T04:14:30.313Z,6.20
2017-08-08T04:17:05.644Z,6.10
2017-08-08T04:19:40.099Z,8.93
2017-08-08T04:22:34.323Z,6.73
2017-08-08T04:25:08.829Z,7.00
2017-08-08T04:27:44.118Z,6.60
2017-08-08T04:30:19.510Z,6.60
2017-08-08T04:32:54.014Z,6.70
2017-08-08T04:35:28.470Z,6.80
2017-08-08T04:38:02.982Z,9.83
2017-08-08T04:40:37.578Z,7.30
2017-08-08T04:43:12.130Z,7.80
2017-08-08T04:45:46.631Z,6.93
2017-08-08T04:48:21.170Z,7.37
2017-08-08T04:50:56.536Z,7.50
2017-08-08T04:53:31.029Z,6.97
2017-08-08T04:56:06.201Z,7.73
2017-08-08T04:58:40.813Z,6.43
2017-08-08T05:01:16.212Z,7.03
2017-08-08T05:03:50.806Z,6.60
2017-08-08T05:06:25.385Z,8.17
2017-08-08T05:08:59.986Z,8.30
2017-08-08T05:11:35.470Z,7.47
2017-08-08T05:14:09.968Z,8.27
2017-08-08T05:16:44.432Z,7.40
2017-08-08T05:19:19.121Z,8.23
2017-08-08T05:21:54.519Z,6.80
2017-08-08T05:24:29.011Z,8.47
2017-08-08T05:27:03.584Z,7.77
2017-08-08T05:29:37.475Z,7.77
2017-08-08T05:32:12.357Z,8.60
2017-08-08T05:34:47.950Z,8.33
2017-08-08T05:37:22.634Z,8.20
2017-08-08T05:39:57.979Z,9.97
2017-08-08T05:42:33.415Z,9.13
2017-08-08T05:45:07.896Z,8.17
2017-08-08T05:47:42.401Z,8.27
2017-08-08T05:50:17.079Z,8.80
2017-08-08T05:52:52.596Z,9.50
2017-08-08T05:55:27.060Z,8.90
2017-08-08T05:58:01.544Z,7.90
2017-08-08T06:00:36.580Z,7.87
2017-08-08T06:03:11.394Z,8.00
2017-08-08T06:05:45.992Z,9.80
2017-08-08T06:08:21.175Z,8.57
2017-08-08T06:10:56.659Z,8.30
2017-08-08T06:13:32.189Z,8.53
2017-08-08T06:16:06.681Z,9.20
2017-08-08T06:18:41.174Z,9.47
2017-08-08T06:21:15.653Z,8.67
2017-08-08T06:23:50.116Z,8.83
2017-08-08T06:26:25.602Z,8.67
2017-08-08T06:29:00.855Z,8.67
2017-08-08T06:31:35.390Z,8.90
2017-08-08T06:34:10.031Z,9.47
2017-08-08T06:36:44.621Z,9.77
2017-08-08T06:39:19.229Z,8.73
2017-08-08T06:41:54.821Z,8.07
2017-08-08T06:44:30.140Z,9.10
2017-08-08T06:47:04.746Z,9.47
2017-08-08T06:49:39.229Z,8.60
2017-08-08T06:52:13.706Z,9.53
2017-08-08T06:54:48.257Z,9.60
2017-08-08T06:57:22.719Z,8.60
2017-08-08T06:59:58.135Z,8.87
2017-08-08T07:02:32.680Z,9.80
2017-08-08T07:05:07.225Z,8.60
2017-08-08T07:07:42.565Z,8.37
2017-08-08T07:10:17.066Z,8.80
2017-08-08T07:12:56.229Z,8.67
2017-08-08T07:15:31.128Z,8.63
2017-08-08T07:18:05.913Z,7.93
2017-08-08T07:20:43.444Z,9.27
2017-08-08T07:23:18.070Z,9.80
2017-08-08T07:25:52.713Z,7.80
2017-08-08T07:28:33.493Z,9.43
2017-08-08T07:31:21.935Z,8.73
2017-08-08T07:37:06.987Z,8.00
2017-08-08T07:39:43.112Z,7.67
2017-08-08T07:42:18.397Z,8.40
2017-08-08T07:44:54.517Z,8.90
2017-08-08T07:47:31.245Z,7.60
2017-08-08T07:50:05.816Z,6.93
2017-08-08T07:52:59.327Z,7.97
2017-08-08T07:55:36.399Z,7.60
2017-08-08T07:58:23.695Z,6.93
2017-08-08T08:01:10.530Z,7.20
2017-08-08T08:06:52.682Z,7.03
2017-08-08T08:12:51.003Z,6.43
2017-08-08T08:15:31.895Z,7.20
2017-08-08T08:21:23.703Z,6.67
2017-08-08T08:24:05.036Z,6.53
2017-08-08T08:26:44.019Z,6.10
2017-08-08T08:32:16.765Z,4.90
2017-08-08T08:34:51.549Z,5.13
2017-08-08T08:37:25.945Z,4.40
2017-08-08T08:40:00.664Z,4.90
2017-08-08T08:42:35.372Z,4.33
2017-08-08T08:45:10.005Z,3.97
2017-08-08T08:47:44.637Z,4.07
2017-08-08T08:50:20.432Z,4.40
2017-08-08T08:52:56.068Z,4.73
2017-08-08T08:55:31.248Z,4.60
2017-08-08T08:58:06.353Z,4.40
2017-08-08T09:00:40.949Z,4.90
2017-08-08T09:03:16.378Z,4.17
2017-08-08T09:05:51.436Z,4.13
2017-08-08T09:08:26.165Z,4.70
2017-08-08T09:11:00.860Z,4.43
2017-08-08T09:13:36.511Z,4.00
2017-08-08T09:16:11.265Z,4.30
2017-08-08T09:18:45.899Z,4.90
2017-08-08T09:21:20.521Z,4.17
2017-08-08T09:23:55.214Z,4.10
2017-08-08T09:26:29.943Z,4.40
2017-08-08T09:29:04.462Z,3.93
2017-08-08T09:31:40.061Z,4.40
2017-08-08T09:34:15.873Z,4.20
2017-08-08T09:36:50.401Z,4.73
2017-08-08T09:39:24.932Z,4.50
2017-08-08T09:41:59.702Z,4.13
2017-08-08T09:44:35.517Z,4.73
2017-08-08T09:47:10.079Z,4.57
2017-08-08T09:49:44.725Z,4.83
2017-08-08T09:52:19.490Z,4.57
2017-08-08T09:54:53.996Z,4.33
2017-08-08T09:57:29.858Z,5.20
2017-08-08T10:00:05.213Z,4.67
2017-08-08T10:02:40.900Z,5.20
2017-08-08T10:05:15.596Z,4.63
2017-08-08T10:07:50.733Z,4.87
2017-08-08T10:10:25.768Z,4.93
2017-08-08T10:13:00.417Z,4.90
2017-08-08T10:15:35.177Z,4.73
2017-08-08T10:18:09.675Z,5.10
2017-08-08T10:20:44.469Z,4.70
2017-08-08T10:23:19.356Z,4.90
2017-08-08T10:25:54.149Z,5.00
2017-08-08T10:28:28.696Z,4.80
2017-08-08T10:31:03.509Z,4.70
2017-08-08T10:33:38.437Z,5.37
2017-08-08T10:36:13.146Z,4.90
2017-08-08T10:38:47.724Z,3.77
2017-08-08T10:41:23.240Z,4.60
2017-08-08T10:43:57.931Z,4.40
2017-08-08T10:46:32.700Z,4.70
2017-08-08T10:49:07.456Z,3.80
2017-08-08T10:51:41.933Z,4.20
2017-08-08T10:54:16.703Z,4.43
2017-08-08T10:56:52.289Z,4.30
2017-08-08T10:59:26.919Z,3.63
2017-08-08T11:02:01.539Z,3.57
2017-08-08T11:04:36.209Z,4.03
2017-08-08T11:07:10.833Z,3.97
2017-08-08T11:09:45.556Z,4.40
2017-08-08T11:12:20.289Z,4.40
2017-08-08T11:14:55.012Z,4.00
2017-08-08T11:17:29.673Z,4.50
2017-08-08T11:20:04.296Z,4.13
2017-08-08T11:22:38.918Z,3.90
2017-08-08T11:25:13.624Z,3.40
2017-08-08T11:27:48.264Z,4.47
2017-08-08T11:30:22.884Z,4.17
2017-08-08T11:32:57.444Z,4.37
2017-08-08T11:35:31.986Z,4.10
2017-08-08T11:38:06.764Z,4.30
2017-08-08T11:40:41.372Z,4.27
2017-08-08T11:43:17.047Z,4.00
2017-08-08T11:45:51.762Z,4.30
2017-08-08T11:48:27.453Z,4.10
2017-08-08T11:51:02.151Z,4.50
2017-08-08T11:53:36.898Z,4.23
2017-08-08T11:56:11.545Z,4.00
2017-08-08T11:58:46.180Z,3.67
2017-08-08T12:01:20.826Z,4.47
2017-08-08T12:03:55.604Z,4.20
2017-08-08T12:06:30.261Z,4.40
2017-08-08T12:09:04.220Z,4.00
2017-08-08T12:11:39.316Z,4.07
2017-08-08T12:14:14.074Z,4.90
2017-08-08T12:16:48.696Z,4.20
2017-08-08T12:19:23.441Z,4.70
2017-08-08T12:21:58.223Z,4.63
2017-08-08T12:24:32.865Z,4.87
2017-08-08T12:27:07.489Z,4.67
2017-08-08T12:29:42.400Z,4.80
2017-08-08T12:32:16.816Z,4.90
2017-08-08T12:34:51.429Z,5.00
2017-08-08T12:37:26.245Z,5.40
2017-08-08T12:40:00.633Z,4.80
2017-08-08T12:42:35.127Z,4.53
2017-08-08T12:45:09.745Z,4.77
2017-08-08T12:47:44.517Z,4.30
2017-08-08T12:50:19.139Z,4.30
2017-08-08T12:52:53.753Z,4.50
2017-08-08T12:55:28.509Z,5.30
2017-08-08T12:58:03.223Z,4.90
2017-08-08T13:00:37.865Z,5.20
2017-08-08T13:03:12.645Z,5.17
2017-08-08T13:05:47.421Z,5.10
2017-08-08T13:08:22.044Z,5.33
2017-08-08T13:10:56.644Z,5.00
2017-08-08T13:13:32.366Z,5.20
2017-08-08T13:16:07.009Z,5.50
2017-08-08T13:18:41.709Z,4.90
2017-08-08T13:21:16.393Z,5.20
2017-08-08T13:23:51.031Z,5.30
2017-08-08T13:26:25.567Z,5.20
2017-08-08T13:29:01.327Z,5.63
2017-08-08T13:31:36.957Z,5.20
2017-08-08T13:34:11.581Z,5.47
2017-08-08T13:36:46.313Z,4.97
2017-08-08T13:39:20.953Z,5.60
2017-08-08T13:41:55.524Z,6.17
2017-08-08T13:44:30.293Z,5.50
2017-08-08T13:47:04.985Z,5.60
2017-08-08T13:49:39.592Z,5.97
2017-08-08T13:52:14.237Z,5.40
2017-08-08T13:54:50.033Z,6.40
2017-08-08T13:57:24.641Z,6.70
2017-08-08T13:59:59.321Z,6.70
2017-08-08T14:02:33.996Z,6.00
2017-08-08T14:05:08.769Z,6.77
2017-08-08T14:07:43.385Z,7.37
2017-08-08T14:10:18.049Z,7.20
2017-08-08T14:12:52.604Z,8.40
2017-08-08T14:15:29.186Z,7.67
2017-08-08T14:18:03.906Z,8.00
2017-08-08T14:20:38.360Z,7.60
2017-08-08T14:23:13.004Z,7.03
2017-08-08T14:25:47.740Z,7.70
2017-08-08T14:28:22.560Z,7.80
2017-08-08T14:30:57.271Z,7.80
2017-08-08T14:33:31.753Z,7.37
2017-08-08T14:36:06.085Z,7.80
2017-08-08T14:38:40.985Z,8.50
2017-08-08T14:41:16.717Z,8.07
2017-08-08T14:43:51.413Z,7.67
2017-08-08T14:46:26.297Z,8.07
2017-08-08T14:49:00.693Z,8.07
2017-08-08T14:51:35.442Z,7.93
2017-08-08T14:54:10.226Z,7.33
2017-08-08T14:56:46.341Z,7.40
2017-08-08T14:59:21.033Z,8.10
2017-08-08T15:01:55.481Z,8.40
2017-08-08T15:04:31.013Z,8.83
2017-08-08T15:07:05.648Z,7.90
2017-08-08T15:09:40.245Z,8.33
2017-08-08T15:12:14.919Z,8.20
2017-08-08T15:14:49.791Z,8.73
2017-08-08T15:17:24.468Z,8.50
2017-08-08T15:19:59.047Z,8.90
2017-08-08T15:22:33.733Z,8.20
2017-08-08T15:25:08.277Z,7.93
2017-08-08T15:27:43.015Z,8.90
2017-08-08T15:30:17.639Z,9.40
2017-08-08T15:32:52.467Z,9.20
2017-08-08T15:35:27.286Z,8.30
2017-08-08T15:38:03.277Z,8.13
2017-08-08T15:40:37.890Z,8.73
2017-08-08T15:43:12.603Z,8.77
2017-08-08T15:45:46.914Z,8.33
2017-08-08T15:48:21.661Z,8.70
2017-08-08T15:50:56.277Z,9.13
2017-08-08T15:53:31.093Z,8.93
2017-08-08T15:56:06.737Z,8.53
2017-08-08T15:58:41.389Z,9.83
2017-08-08T16:01:16.164Z,8.90
2017-08-08T16:03:50.747Z,8.77
2017-08-08T16:06:25.554Z,9.17
2017-08-08T16:09:00.963Z,9.33
2017-08-08T16:11:35.754Z,8.53
2017-08-08T16:14:10.417Z,9.40
2017-08-08T16:16:45.236Z,8.70
2017-08-08T16:19:19.861Z,7.23
2017-08-08T16:21:54.459Z,8.33
2017-08-08T16:24:29.261Z,8.47
2017-08-08T16:27:03.853Z,8.40
2017-08-08T16:29:38.550Z,9.60
2017-08-08T16:32:13.323Z,7.73
2017-08-08T16:34:48.141Z,7.80
2017-08-08T16:37:22.663Z,8.10
2017-08-08T16:39:57.333Z,7.70
2017-08-08T16:42:31.949Z,7.00
2017-08-08T16:45:06.624Z,5.90
2017-08-08T16:47:41.384Z,5.73
2017-08-08T16:50:16.009Z,6.30
2017-08-08T16:52:50.869Z,5.50
2017-08-08T16:55:26.295Z,5.63
2017-08-08T16:58:00.806Z,5.40
2017-08-08T17:00:35.530Z,5.73
2017-08-08T17:03:10.153Z,5.83
2017-08-08T17:05:45.887Z,6.07
2017-08-08T17:08:20.369Z,6.57
2017-08-08T17:10:55.255Z,5.80
2017-08-08T17:13:29.868Z,6.70
2017-08-08T17:16:04.625Z,7.03
2017-08-08T17:18:39.321Z,6.50
2017-08-08T17:21:13.981Z,6.73
2017-08-08T17:23:48.703Z,6.60
2017-08-08T17:26:24.269Z,6.30
2017-08-08T17:28:58.961Z,6.07
2017-08-08T17:31:33.977Z,5.93
2017-08-08T17:34:09.263Z,5.90
2017-08-08T17:36:44.865Z,5.80
2017-08-08T17:39:19.601Z,6.43
2017-08-08T17:41:54.296Z,6.07
2017-08-08T17:44:29.721Z,5.73
2017-08-08T17:47:04.400Z,5.10
2017-08-08T17:49:39.102Z,5.00
2017-08-08T17:52:14.723Z,5.40
2017-08-08T17:54:49.407Z,6.03
2017-08-08T17:57:24.989Z,5.40
2017-08-08T17:59:59.700Z,5.63
2017-08-08T18:02:34.427Z,6.27
2017-08-08T18:05:09.165Z,5.70
2017-08-08T18:07:44.809Z,5.80
2017-08-08T18:10:19.517Z,6.03
2017-08-08T18:12:54.166Z,6.07
2017-08-08T18:15:28.802Z,5.47
2017-08-08T18:18:04.176Z,5.40
2017-08-08T18:20:38.986Z,5.30
2017-08-08T18:23:14.348Z,5.53
2017-08-08T18:25:49.408Z,5.20
2017-08-08T18:28:25.103Z,5.90
2017-08-08T18:30:59.721Z,5.70
2017-08-08T18:33:35.588Z,6.50
2017-08-08T18:36:10.215Z,5.80
2017-08-08T18:38:44.993Z,5.40
2017-08-08T18:41:19.657Z,5.87
2017-08-08T18:43:55.202Z,5.17
2017-08-08T18:46:29.924Z,6.87
2017-08-08T18:49:04.664Z,6.57
2017-08-08T18:51:39.321Z,6.70
2017-08-08T18:54:14.044Z,7.07
2017-08-08T18:56:48.737Z,7.00
2017-08-08T18:59:24.521Z,7.57
2017-08-08T19:01:59.040Z,6.90
2017-08-08T19:04:33.740Z,7.37
2017-08-08T19:07:08.369Z,6.87
2017-08-08T19:09:43.069Z,6.87
2017-08-08T19:12:19.284Z,6.43
2017-08-08T19:14:54.835Z,5.90
2017-08-08T19:17:29.247Z,5.90
2017-08-08T19:20:04.248Z,5.77
2017-08-08T19:22:39.521Z,6.87
2017-08-08T19:25:14.231Z,6.00
2017-08-08T19:27:48.963Z,6.20
2017-08-08T19:30:23.653Z,5.30
2017-08-08T19:32:58.328Z,6.50
2017-08-08T19:35:33.004Z,5.80
2017-08-08T19:38:07.688Z,5.63
2017-08-08T19:40:42.312Z,6.50
2017-08-08T19:43:16.893Z,5.73
2017-08-08T19:45:51.568Z,6.30
2017-08-08T19:48:26.329Z,6.40
2017-08-08T19:51:00.991Z,6.27
2017-08-08T19:53:35.899Z,5.90
2017-08-08T19:56:11.348Z,6.37
2017-08-08T19:58:46.012Z,6.17
2017-08-08T20:01:21.547Z,6.30
2017-08-08T20:03:56.188Z,6.20
2017-08-08T20:06:30.944Z,5.83
2017-08-08T20:09:05.405Z,6.20
2017-08-08T20:11:40.301Z,5.77
2017-08-08T20:14:15.264Z,5.80
2017-08-08T20:16:50.229Z,5.20
2017-08-08T20:19:25.269Z,6.40
2017-08-08T20:22:00.004Z,6.37
2017-08-08T20:24:34.525Z,7.30
2017-08-08T20:27:09.305Z,6.80
2017-08-08T20:29:43.934Z,7.90
2017-08-08T20:32:19.683Z,7.13
2017-08-08T20:34:54.179Z,8.53
2017-08-08T20:37:28.840Z,9.90
2017-08-08T20:40:03.595Z,11.17
2017-08-08T20:42:38.297Z,11.20
2017-08-08T20:45:13.070Z,12.30
2017-08-08T20:47:47.725Z,13.07
2017-08-08T20:50:22.459Z,15.10
2017-08-08T20:52:57.283Z,14.00
2017-08-08T20:55:32.105Z,14.13
2017-08-08T20:58:07.245Z,17.03
2017-08-08T21:00:41.618Z,15.07
2017-08-08T21:03:16.352Z,14.63
2017-08-08T21:05:50.989Z,16.53
2017-08-08T21:08:25.869Z,16.13
2017-08-08T21:11:00.392Z,16.97
2017-08-08T21:13:34.943Z,17.40
2017-08-08T21:16:09.798Z,18.10
2017-08-08T21:18:46.485Z,17.30
2017-08-08T21:21:21.233Z,19.93
2017-08-08T21:23:55.938Z,17.90
2017-08-08T21:26:30.689Z,18.23
2017-08-08T21:29:06.455Z,20.80
2017-08-08T21:31:41.164Z,20.83
2017-08-08T21:34:16.539Z,21.23
2017-08-08T21:36:51.743Z,22.00
2017-08-08T21:39:34.038Z,21.67
2017-08-08T21:42:09.299Z,23.60
2017-08-08T21:44:44.052Z,25.63
2017-08-08T21:47:18.783Z,27.33
2017-08-08T21:49:53.482Z,25.77
2017-08-08T21:52:28.477Z,26.30
2017-08-08T21:55:02.927Z,25.53
2017-08-08T21:57:37.653Z,26.43
2017-08-08T22:00:12.423Z,25.83
2017-08-08T22:02:46.971Z,28.97
2017-08-08T22:05:22.818Z,27.50
2017-08-08T22:07:57.507Z,25.83
2017-08-08T22:10:32.045Z,23.83
2017-08-08T22:13:06.767Z,24.93
2017-08-08T22:15:42.609Z,26.10
2017-08-08T22:18:17.312Z,26.70
2017-08-08T22:20:52.071Z,27.43
2017-08-08T22:23:26.716Z,25.60
2017-08-08T22:26:01.456Z,26.50
2017-08-08T22:28:36.244Z,27.00
2017-08-08T22:31:10.884Z,27.20
2017-08-08T22:33:45.188Z,26.93
2017-08-08T22:36:20.267Z,25.60
2017-08-08T22:38:55.075Z,26.70
2017-08-08T22:41:29.700Z,26.27
2017-08-08T22:44:05.555Z,26.53
2017-08-08T22:46:40.239Z,26.27
2017-08-08T22:49:14.905Z,27.00
2017-08-08T22:51:49.548Z,25.37
2017-08-08T22:54:24.256Z,25.90
2017-08-08T22:56:59.005Z,24.07
2017-08-08T22:59:33.757Z,25.40
2017-08-08T23:02:08.485Z,25.90
2017-08-08T23:04:43.245Z,23.80
2017-08-08T23:07:18.007Z,23.73
2017-08-08T23:09:52.777Z,23.77
2017-08-08T23:12:27.516Z,22.47
2017-08-08T23:15:02.314Z,22.87
2017-08-08T23:17:37.061Z,20.47
2017-08-08T23:20:11.845Z,21.80
2017-08-08T23:22:46.489Z,20.57
2017-08-08T23:25:21.135Z,17.87
2017-08-08T23:27:56.070Z,16.90
2017-08-08T23:30:30.905Z,14.13
2017-08-08T23:33:05.833Z,15.70
2017-08-08T23:35:40.536Z,14.40
2017-08-08T23:38:15.449Z,12.40
2017-08-08T23:40:50.145Z,14.27
2017-08-08T23:43:24.851Z,14.23
2017-08-08T23:45:59.700Z,15.07
2017-08-08T23:48:34.587Z,14.73
2017-08-08T23:51:09.519Z,13.43
2017-08-08T23:53:44.405Z,14.13
2017-08-08T23:56:19.212Z,15.30
2017-08-08T23:58:53.957Z,14.87
